Terminal Aerodrome Forecast
Issued by NWS Pocatello, ID

Current Version | Previous Version | Text Only | Print | Product List | Glossary On
Versions: 1 2 3 4 5 6 7 8 9 10 11 12 13 14 15 16 17 18 19 20
000
FTUS45 KPIH 010500
TAFBYI
TAF
KBYI 010526Z 0106/0206 24006KT P6SM SKC
     FM011100 VRB03KT P6SM BKN015
     FM011600 VRB03KT P6SM FEW020 BKN100
     FM020300 24008KT P6SM VCSH SCT025 BKN050=

USA.gov is the U.S. government's official web portal to all federal, state and local government web resources and services.